Time;durP1;ratioP1;P1;durP2;ratioP2;P2;SDS_P1;SDS_P2;PMS_P1;PMS_P2;Temp;Humidity;BMP_temperature;BMP_pressure;BME280_temperature;BME280_humidity;BME280_pressure;Samples;Min_cycle;Max_cycle;Signal;HPM_P1;HPM_P2
2022/03/12 00:01:08;;;;;;;12.65;7.45;;;6.50;61.70;;;;;;5110556;27;20081;-66
2022/03/12 00:03:35;;;;;;;13.88;7.22;;;6.50;62.10;;;;;;5106509;27;20043;-66
2022/03/12 00:06:02;;;;;;;12.82;7.38;;;6.40;61.80;;;;;;5116221;27;20054;-66
2022/03/12 00:08:44;;;;;;;15.18;7.82;;;6.40;62.00;;;;;;5133292;27;20115;-66
2022/03/12 00:11:16;;;;;;;12.13;7.47;;;6.40;61.80;;;;;;5110569;27;20134;-66
2022/03/12 00:13:42;;;;;;;12.35;7.72;;;6.40;61.50;;;;;;5113986;27;20464;-66
2022/03/12 00:16:15;;;;;;;14.63;7.57;;;6.40;61.90;;;;;;5112565;28;20387;-66
2022/03/12 00:18:42;;;;;;;15.65;7.57;;;6.40;60.90;;;;;;5112244;27;20042;-66
2022/03/12 00:21:11;;;;;;;11.45;7.53;;;6.50;61.20;;;;;;5115004;27;20042;-66
2022/03/12 00:23:37;;;;;;;12.82;7.50;;;6.50;61.40;;;;;;5110244;28;20057;-66
2022/03/12 00:26:02;;;;;;;13.10;7.20;;;6.50;61.40;;;;;;5118229;27;20106;-66
2022/03/12 00:28:28;;;;;;;12.95;7.47;;;6.50;61.30;;;;;;5113494;27;20032;-66
2022/03/12 00:30:53;;;;;;;12.10;7.75;;;6.50;61.30;;;;;;5112762;27;20047;-65
2022/03/12 00:33:21;;;;;;;13.15;7.50;;;6.50;61.20;;;;;;5115460;27;20134;-65
2022/03/12 00:35:51;;;;;;;12.02;7.38;;;6.50;61.50;;;;;;5102010;27;20486;-65
2022/03/12 00:38:20;;;;;;;13.15;8.15;;;6.50;61.60;;;;;;5113994;27;20138;-66
2022/03/12 00:40:46;;;;;;;12.10;7.22;;;6.50;62.60;;;;;;5113172;27;20091;-66
2022/03/12 00:43:12;;;;;;;11.75;7.68;;;6.50;62.00;;;;;;5111667;27;20043;-66
2022/03/12 00:45:38;;;;;;;11.65;7.18;;;6.50;62.00;;;;;;5133282;27;20386;-66
2022/03/12 00:48:05;;;;;;;10.90;7.22;;;6.50;62.10;;;;;;5115227;27;20078;-66
2022/03/12 00:50:30;;;;;;;12.38;7.75;;;6.50;62.10;;;;;;5114995;27;20058;-66
2022/03/12 00:52:56;;;;;;;12.82;7.53;;;6.50;62.10;;;;;;5115579;27;20039;-66
2022/03/12 00:55:22;;;;;;;11.93;7.03;;;6.50;62.00;;;;;;5106691;28;20043;-66
2022/03/12 00:57:47;;;;;;;13.63;7.90;;;6.50;62.10;;;;;;5114633;27;20134;-66
2022/03/12 01:00:17;;;;;;;14.10;7.70;;;6.50;61.90;;;;;;5106847;27;20499;-66
2022/03/12 01:02:43;;;;;;;14.68;7.15;;;6.50;62.00;;;;;;5114196;27;20054;-66
2022/03/12 01:05:09;;;;;;;11.45;7.35;;;6.50;62.00;;;;;;5114714;27;20043;-66
2022/03/12 01:07:34;;;;;;;12.68;7.80;;;6.50;62.20;;;;;;5108383;28;20184;-66
2022/03/12 01:10:00;;;;;;;13.43;7.93;;;6.50;63.10;;;;;;5111937;27;20494;-66
2022/03/12 01:12:26;;;;;;;13.57;7.80;;;6.50;62.60;;;;;;5115462;27;20083;-66
2022/03/12 01:14:52;;;;;;;13.27;7.32;;;6.50;62.40;;;;;;5111481;27;20084;-66
2022/03/12 01:17:17;;;;;;;13.70;8.75;;;6.40;62.40;;;;;;5103209;28;20379;-66
2022/03/12 01:19:43;;;;;;;12.02;7.50;;;6.40;62.50;;;;;;5114307;27;20046;-66
2022/03/12 01:22:18;;;;;;;11.35;7.25;;;6.40;62.70;;;;;;5114137;27;20338;-66
2022/03/12 01:24:43;;;;;;;15.48;7.60;;;6.40;62.70;;;;;;5131554;27;20393;-66
2022/03/12 01:27:09;;;;;;;13.57;7.30;;;6.40;63.10;;;;;;5110406;28;20043;-66
2022/03/12 01:29:34;;;;;;;14.35;7.53;;;6.40;63.50;;;;;;5112693;27;20042;-66
2022/03/12 01:32:00;;;;;;;11.18;7.45;;;6.30;63.60;;;;;;5111659;28;20436;-65
2022/03/12 01:34:25;;;;;;;17.75;7.10;;;6.30;64.10;;;;;;5114927;27;20043;-66
2022/03/12 01:36:51;;;;;;;15.18;7.57;;;6.20;64.20;;;;;;5113612;27;20077;-66
2022/03/12 01:39:17;;;;;;;12.45;7.15;;;6.30;64.10;;;;;;5113291;27;20516;-65
2022/03/12 01:41:43;;;;;;;12.57;7.60;;;6.20;64.10;;;;;;5108949;27;20466;-65
2022/03/12 01:44:09;;;;;;;13.30;7.43;;;6.20;64.40;;;;;;5132745;27;20073;-66
2022/03/12 01:46:41;;;;;;;11.80;7.38;;;6.20;64.70;;;;;;5114284;27;20481;-66
2022/03/12 01:49:10;;;;;;;14.75;8.02;;;6.20;64.60;;;;;;5132562;27;20424;-65
2022/03/12 01:51:41;;;;;;;13.13;7.38;;;6.20;64.90;;;;;;5120965;27;20028;-66
2022/03/12 01:54:06;;;;;;;11.77;7.75;;;6.20;65.70;;;;;;5107447;27;20027;-65
2022/03/12 01:56:34;;;;;;;12.60;7.40;;;6.20;65.40;;;;;;5108459;28;20043;-66
2022/03/12 01:59:01;;;;;;;13.20;7.40;;;6.20;65.50;;;;;;5110658;27;20090;-66
2022/03/12 02:01:28;;;;;;;13.20;7.60;;;6.20;65.00;;;;;;5114547;27;20051;-66
2022/03/12 02:03:59;;;;;;;14.75;7.68;;;6.30;65.00;;;;;;5112725;27;20042;-65
2022/03/12 02:06:24;;;;;;;17.27;7.93;;;6.20;64.70;;;;;;5132273;27;20041;-66
2022/03/12 02:08:57;;;;;;;12.75;7.80;;;6.20;65.20;;;;;;5112932;27;20043;-66
2022/03/12 02:11:27;;;;;;;13.32;7.38;;;6.20;65.30;;;;;;5113805;27;20095;-66
2022/03/12 02:14:23;;;;;;;14.57;7.90;;;6.20;65.30;;;;;;5113667;27;20113;-66
2022/03/12 02:16:55;;;;;;;14.00;7.65;;;6.30;64.40;;;;;;5093058;27;20055;-66
2022/03/12 02:19:25;;;;;;;13.95;8.05;;;6.30;64.80;;;;;;5107451;27;20104;-66
2022/03/12 02:22:03;;;;;;;13.13;7.68;;;6.30;64.30;;;;;;5105619;27;20042;-66
2022/03/12 02:24:31;;;;;;;14.85;7.35;;;6.30;63.80;;;;;;5130982;27;20043;-66
2022/03/12 02:26:59;;;;;;;13.40;7.40;;;6.30;64.20;;;;;;5109981;27;20046;-66
2022/03/12 02:29:25;;;;;;;14.88;7.68;;;6.30;64.10;;;;;;5113287;27;20137;-66
2022/03/12 02:31:55;;;;;;;14.40;7.93;;;6.30;63.80;;;;;;5108468;28;20167;-66
2022/03/12 02:34:23;;;;;;;14.77;7.90;;;6.30;63.40;;;;;;5113547;27;20031;-66
2022/03/12 02:36:51;;;;;;;13.98;8.38;;;6.30;63.00;;;;;;5101150;27;20039;-66
2022/03/12 02:39:19;;;;;;;13.23;8.07;;;6.30;63.20;;;;;;5112003;27;20035;-66
2022/03/12 02:41:45;;;;;;;14.52;7.70;;;6.30;62.70;;;;;;5113279;27;20144;-66
2022/03/12 02:44:22;;;;;;;14.38;7.80;;;6.30;63.00;;;;;;5113231;27;20043;-66
2022/03/12 02:47:13;;;;;;;15.88;8.25;;;6.30;63.10;;;;;;5127204;27;20043;-65
2022/03/12 02:49:52;;;;;;;13.05;8.05;;;6.30;62.80;;;;;;5112639;27;20035;-66
2022/03/12 02:52:18;;;;;;;13.70;8.07;;;6.30;63.10;;;;;;5130416;27;20439;-66
2022/03/12 02:54:44;;;;;;;13.15;7.80;;;6.40;63.30;;;;;;5108739;27;20408;-65
2022/03/12 02:57:10;;;;;;;12.88;7.95;;;6.40;63.00;;;;;;5112592;27;20074;-66
2022/03/12 02:59:43;;;;;;;15.15;8.57;;;6.40;63.60;;;;;;5124897;27;20138;-66
2022/03/12 03:02:10;;;;;;;14.95;8.50;;;6.30;63.10;;;;;;5102870;27;20122;-66
2022/03/12 03:04:36;;;;;;;17.20;8.65;;;6.40;62.50;;;;;;5113162;27;20039;-67
2022/03/12 03:07:03;;;;;;;16.95;8.60;;;6.50;63.60;;;;;;5112906;27;20080;-66
2022/03/12 03:09:29;;;;;;;16.48;7.85;;;6.40;63.30;;;;;;5108253;27;20045;-66
2022/03/12 03:11:55;;;;;;;15.13;7.65;;;6.50;63.70;;;;;;5124357;27;20105;-66
2022/03/12 03:14:23;;;;;;;13.65;8.68;;;6.50;64.00;;;;;;5111133;28;20063;-66
2022/03/12 03:16:50;;;;;;;14.27;7.88;;;6.50;63.80;;;;;;5106482;27;20101;-66
2022/03/12 03:19:15;;;;;;;16.17;8.18;;;6.50;64.40;;;;;;5112067;28;20054;-66
2022/03/12 03:21:41;;;;;;;16.05;7.90;;;6.50;64.20;;;;;;5130729;27;20420;-65
2022/03/12 03:24:06;;;;;;;15.70;8.57;;;6.50;63.90;;;;;;5113412;27;20039;-66
2022/03/12 03:26:38;;;;;;;13.48;8.35;;;6.50;64.60;;;;;;5130773;27;20031;-66
2022/03/12 03:29:05;;;;;;;18.75;8.60;;;6.50;64.40;;;;;;5091831;28;20079;-66
2022/03/12 03:31:32;;;;;;;13.88;7.88;;;6.50;65.10;;;;;;5100845;28;20594;-66
2022/03/12 03:33:57;;;;;;;17.65;8.05;;;6.50;65.30;;;;;;5112603;28;20059;-66
2022/03/12 03:36:23;;;;;;;19.40;8.27;;;6.50;65.20;;;;;;5110287;27;20055;-66
2022/03/12 03:38:48;;;;;;;13.13;8.02;;;6.50;65.40;;;;;;5112039;28;20482;-66
2022/03/12 03:41:15;;;;;;;15.13;8.32;;;6.50;65.40;;;;;;5112318;28;20122;-66
2022/03/12 03:43:45;;;;;;;16.17;9.23;;;6.50;65.70;;;;;;5130552;28;20079;-65
2022/03/12 03:46:10;;;;;;;12.65;8.00;;;6.50;66.50;;;;;;5113885;28;20035;-65
2022/03/12 03:48:38;;;;;;;13.02;8.13;;;6.50;67.50;;;;;;5126880;27;20043;-66
2022/03/12 03:51:04;;;;;;;16.92;8.60;;;6.50;67.10;;;;;;5107201;28;20043;-66
2022/03/12 03:53:30;;;;;;;15.15;9.00;;;6.50;67.30;;;;;;5110806;28;20042;-66
2022/03/12 03:56:00;;;;;;;14.68;8.85;;;6.50;67.80;;;;;;5110043;28;20335;-66
2022/03/12 03:58:27;;;;;;;16.48;8.80;;;6.50;68.00;;;;;;5109398;27;20043;-66
2022/03/12 04:00:58;;;;;;;14.88;8.13;;;6.50;67.70;;;;;;5128186;27;20166;-66
2022/03/12 04:03:25;;;;;;;13.98;8.15;;;6.50;67.40;;;;;;5111692;28;20046;-66
2022/03/12 04:05:51;;;;;;;15.93;8.88;;;6.50;67.50;;;;;;5130168;28;20043;-66
2022/03/12 04:08:17;;;;;;;11.93;8.10;;;6.50;68.20;;;;;;5110813;28;20043;-66
2022/03/12 04:10:43;;;;;;;15.85;8.50;;;6.50;68.20;;;;;;5111520;28;20047;-67
2022/03/12 04:13:16;;;;;;;16.17;8.75;;;6.50;68.80;;;;;;5110021;27;20043;-66
2022/03/12 04:15:41;;;;;;;15.55;8.10;;;6.50;69.30;;;;;;5111047;28;20043;-66
2022/03/12 04:18:08;;;;;;;15.57;8.98;;;6.50;69.70;;;;;;5112580;28;20035;-66
2022/03/12 04:20:34;;;;;;;14.88;8.90;;;6.50;71.30;;;;;;5112251;27;20043;-67
2022/03/12 04:23:01;;;;;;;16.85;8.98;;;6.50;72.70;;;;;;5115493;27;20087;-66
2022/03/12 04:25:29;;;;;;;17.73;9.27;;;6.50;73.80;;;;;;5113338;27;20043;-67
2022/03/12 04:27:55;;;;;;;14.70;8.93;;;6.40;74.80;;;;;;5129766;27;20089;-66
2022/03/12 04:30:21;;;;;;;16.08;9.20;;;6.40;76.80;;;;;;5115388;27;20061;-66
2022/03/12 04:32:47;;;;;;;19.80;9.52;;;6.40;79.10;;;;;;5115247;27;20039;-67
2022/03/12 04:35:13;;;;;;;16.33;9.75;;;6.40;80.20;;;;;;5133175;27;20035;-66
2022/03/12 04:37:39;;;;;;;16.20;8.75;;;6.30;82.80;;;;;;5115826;27;20131;-66
2022/03/12 04:40:13;;;;;;;16.85;9.38;;;6.30;82.70;;;;;;5115427;27;20031;-67
2022/03/12 04:42:42;;;;;;;15.85;9.93;;;6.30;82.50;;;;;;5112955;27;20122;-66
2022/03/12 04:45:11;;;;;;;14.73;8.77;;;6.30;82.80;;;;;;5115522;27;20039;-66
2022/03/12 04:47:37;;;;;;;18.15;9.68;;;6.30;83.70;;;;;;5113974;27;20039;-66
2022/03/12 04:50:05;;;;;;;16.10;8.95;;;6.30;84.10;;;;;;5136062;27;20460;-67
2022/03/12 04:52:31;;;;;;;16.48;9.45;;;6.30;86.70;;;;;;5134160;27;20526;-66
2022/03/12 04:54:58;;;;;;;15.65;9.63;;;6.30;90.90;;;;;;5115768;27;20039;-66
2022/03/12 04:57:23;;;;;;;18.75;9.48;;;6.30;90.70;;;;;;5115427;27;20051;-66
2022/03/12 04:59:49;;;;;;;15.32;9.63;;;6.30;90.20;;;;;;5132950;27;20122;-66
2022/03/12 05:02:14;;;;;;;14.32;9.13;;;6.30;90.40;;;;;;5115372;27;20066;-66
2022/03/12 05:04:40;;;;;;;15.88;9.48;;;6.30;91.10;;;;;;5113932;27;20047;-66
2022/03/12 05:07:12;;;;;;;16.75;9.52;;;6.30;91.80;;;;;;5115559;27;20035;-66
2022/03/12 05:09:37;;;;;;;18.80;10.33;;;6.30;94.10;;;;;;5106930;27;20096;-66
2022/03/12 05:12:05;;;;;;;20.20;10.45;;;6.20;94.30;;;;;;5108480;27;20088;-67
2022/03/12 05:14:34;;;;;;;18.08;10.45;;;6.20;94.90;;;;;;5097879;27;20040;-66
2022/03/12 05:17:05;;;;;;;20.02;10.38;;;6.20;95.90;;;;;;5106012;28;20043;-66
2022/03/12 05:19:36;;;;;;;19.58;10.98;;;6.20;96.20;;;;;;5124355;27;20091;-66
2022/03/12 05:22:03;;;;;;;19.55;10.82;;;6.20;97.40;;;;;;5097738;27;20039;-67
2022/03/12 05:24:28;;;;;;;17.52;10.50;;;6.20;99.60;;;;;;5122712;27;20076;-66
2022/03/12 05:26:54;;;;;;;18.02;9.90;;;6.20;99.10;;;;;;5126509;27;20043;-66
2022/03/12 05:29:22;;;;;;;17.05;9.85;;;6.10;99.50;;;;;;5132428;27;20512;-66
2022/03/12 05:31:48;;;;;;;15.00;9.63;;;6.10;99.00;;;;;;5111606;27;20497;-66
2022/03/12 05:34:13;;;;;;;19.30;10.82;;;6.10;98.00;;;;;;5112656;27;20043;-66
2022/03/12 05:36:39;;;;;;;18.80;10.38;;;6.10;98.80;;;;;;5115074;27;20112;-66
2022/03/12 05:39:04;;;;;;;19.63;10.57;;;6.10;97.80;;;;;;5112730;27;20363;-66
2022/03/12 05:41:31;;;;;;;20.83;10.30;;;6.10;98.10;;;;;;5113591;27;20042;-67
2022/03/12 05:43:57;;;;;;;17.85;10.15;;;6.20;98.70;;;;;;5114365;27;20054;-66
2022/03/12 05:46:23;;;;;;;16.92;10.18;;;6.10;99.60;;;;;;5114841;27;20064;-66
2022/03/12 05:48:48;;;;;;;22.33;11.27;;;6.20;98.30;;;;;;5112930;27;20114;-66
2022/03/12 05:51:14;;;;;;;21.73;11.00;;;6.10;98.00;;;;;;5096744;27;20115;-66
2022/03/12 05:53:44;;;;;;;18.85;10.63;;;6.20;97.80;;;;;;5114203;27;20112;-66
2022/03/12 05:56:10;;;;;;;18.70;9.85;;;6.10;97.90;;;;;;5112938;27;20051;-66
2022/03/12 05:58:38;;;;;;;17.23;10.38;;;6.10;97.70;;;;;;5111588;27;20035;-66
2022/03/12 06:01:04;;;;;;;18.65;10.40;;;6.10;98.30;;;;;;5112401;27;20128;-67
2022/03/12 06:03:29;;;;;;;21.33;10.32;;;6.20;97.70;;;;;;5114277;27;20047;-66
2022/03/12 06:05:56;;;;;;;19.27;10.38;;;6.10;97.10;;;;;;5112918;27;20397;-66
2022/03/12 06:08:22;;;;;;;18.67;9.98;;;6.20;96.70;;;;;;5113761;27;20135;-66
2022/03/12 06:10:54;;;;;;;19.10;10.63;;;6.20;96.40;;;;;;5112456;27;20047;-66
2022/03/12 06:13:28;;;;;;;17.85;10.18;;;6.20;96.30;;;;;;5092093;27;20041;-67
2022/03/12 06:15:58;;;;;;;20.27;10.13;;;6.20;96.40;;;;;;5132094;27;20188;-67
2022/03/12 06:18:28;;;;;;;19.60;10.57;;;6.10;96.50;;;;;;5113174;27;20150;-66
2022/03/12 06:20:53;;;;;;;18.42;10.90;;;6.20;96.70;;;;;;5112262;27;20050;-66
2022/03/12 06:23:19;;;;;;;19.50;10.30;;;6.20;96.70;;;;;;5108469;27;20035;-66
2022/03/12 06:25:45;;;;;;;21.10;10.85;;;6.10;97.40;;;;;;5112621;27;20035;-66
2022/03/12 06:28:11;;;;;;;20.45;10.60;;;6.10;96.90;;;;;;5121231;27;20268;-67
2022/03/12 06:30:40;;;;;;;20.92;10.57;;;6.10;96.90;;;;;;5105760;27;20113;-66
2022/03/12 06:33:06;;;;;;;17.77;9.80;;;6.00;97.10;;;;;;5109675;27;20047;-66
2022/03/12 06:35:32;;;;;;;19.95;10.70;;;6.00;96.80;;;;;;5108483;27;20539;-66
2022/03/12 06:37:57;;;;;;;19.30;9.93;;;5.90;97.10;;;;;;5112834;27;20042;-67
2022/03/12 06:40:28;;;;;;;19.52;10.02;;;5.90;97.40;;;;;;5110566;27;20039;-66
2022/03/12 06:42:56;;;;;;;21.05;10.38;;;5.90;97.70;;;;;;5112311;28;20056;-66
2022/03/12 06:45:24;;;;;;;19.13;10.73;;;5.80;97.80;;;;;;5114527;27;20035;-66
2022/03/12 06:47:50;;;;;;;20.67;10.32;;;5.80;98.10;;;;;;5106294;27;20071;-66
2022/03/12 06:50:18;;;;;;;21.42;10.90;;;5.80;98.30;;;;;;5124813;27;20445;-67
2022/03/12 06:52:47;;;;;;;19.88;10.70;;;5.80;98.40;;;;;;5111010;27;20043;-66
2022/03/12 06:55:13;;;;;;;18.95;10.60;;;5.70;98.80;;;;;;5112424;27;20117;-66
2022/03/12 06:57:40;;;;;;;22.05;10.52;;;5.70;99.40;;;;;;5112531;27;20061;-66
2022/03/12 07:00:10;;;;;;;23.45;10.88;;;5.70;99.20;;;;;;5130185;27;20481;-66
2022/03/12 07:02:36;;;;;;;18.20;10.63;;;5.80;99.80;;;;;;5112532;28;20046;-66
2022/03/12 07:05:02;;;;;;;17.88;10.30;;;5.80;99.30;;;;;;5112597;27;20035;-66
2022/03/12 07:07:27;;;;;;;18.35;9.93;;;5.90;99.30;;;;;;5093085;28;20040;-67
2022/03/12 07:09:53;;;;;;;21.27;10.68;;;5.90;99.00;;;;;;5108127;27;20481;-66
2022/03/12 07:12:18;;;;;;;19.92;10.68;;;6.00;98.80;;;;;;5108562;28;20039;-66
2022/03/12 07:14:44;;;;;;;20.70;10.18;;;6.10;98.40;;;;;;5112545;27;20042;-66
2022/03/12 07:17:09;;;;;;;21.33;10.57;;;6.20;98.20;;;;;;5112968;27;20043;-67
2022/03/12 07:19:35;;;;;;;20.13;10.77;;;6.20;98.50;;;;;;5111788;27;20071;-66
2022/03/12 07:22:01;;;;;;;21.13;10.20;;;6.30;98.40;;;;;;5111830;27;20031;-66
2022/03/12 07:24:26;;;;;;;19.17;11.02;;;6.40;98.20;;;;;;5111964;27;20031;-66
2022/03/12 07:26:52;;;;;;;18.38;10.25;;;6.50;98.10;;;;;;5093337;28;20040;-66
2022/03/12 07:29:17;;;;;;;22.85;11.25;;;6.70;97.70;;;;;;5109705;28;20134;-66
2022/03/12 07:31:43;;;;;;;19.65;11.30;;;6.70;97.30;;;;;;5107290;28;20106;-66
2022/03/12 07:34:08;;;;;;;19.30;10.88;;;6.80;96.70;;;;;;5111811;28;20043;-66
2022/03/12 07:36:34;;;;;;;21.52;10.98;;;6.90;96.80;;;;;;5129779;28;20401;-66
2022/03/12 07:39:02;;;;;;;18.50;11.00;;;6.90;96.80;;;;;;5110176;28;20039;-66
2022/03/12 07:41:28;;;;;;;18.63;10.98;;;7.00;96.60;;;;;;5111913;28;20483;-66
2022/03/12 07:43:53;;;;;;;22.25;11.80;;;7.00;96.70;;;;;;5110865;27;20039;-66
2022/03/12 07:46:20;;;;;;;22.95;12.10;;;7.00;96.90;;;;;;5102458;28;20173;-67
2022/03/12 07:48:45;;;;;;;21.70;11.52;;;7.10;97.20;;;;;;5111329;28;20031;-66
2022/03/12 07:51:11;;;;;;;20.27;11.13;;;7.20;97.30;;;;;;5110523;28;20661;-67
2022/03/12 07:53:37;;;;;;;23.75;11.38;;;7.20;97.30;;;;;;5112339;28;20520;-67
2022/03/12 07:56:04;;;;;;;21.38;11.57;;;7.30;97.80;;;;;;5128139;27;20035;-66
2022/03/12 07:58:30;;;;;;;21.95;11.05;;;7.40;97.70;;;;;;5116969;27;20097;-67
2022/03/12 08:00:58;;;;;;;22.65;11.90;;;7.50;97.70;;;;;;5106477;27;20043;-66
2022/03/12 08:03:24;;;;;;;25.55;12.05;;;7.60;97.70;;;;;;5132632;27;20042;-67
2022/03/12 08:05:50;;;;;;;21.23;11.75;;;7.60;97.60;;;;;;5115048;27;20043;-66
2022/03/12 08:08:17;;;;;;;21.65;11.48;;;7.70;97.70;;;;;;5115629;27;20035;-67
2022/03/12 08:11:43;;;;;;;23.05;11.88;;;7.80;97.50;;;;;;5129482;27;20121;-66
2022/03/12 08:13:39;;;;;;;21.63;11.25;;;7.90;97.40;;;;;;5101502;27;20443;-66
2022/03/12 08:16:05;;;;;;;22.90;11.95;;;8.00;97.30;;;;;;5113184;27;20050;-66
2022/03/12 08:18:31;;;;;;;18.50;11.75;;;8.20;97.10;;;;;;5111164;27;20039;-66
2022/03/12 08:20:57;;;;;;;21.92;11.77;;;8.40;97.00;;;;;;5096680;27;20555;-66
2022/03/12 08:23:22;;;;;;;24.58;12.65;;;8.60;96.50;;;;;;5133494;27;20055;-66
2022/03/12 08:25:48;;;;;;;20.88;11.98;;;8.70;96.60;;;;;;5113457;27;20027;-67
2022/03/12 08:28:14;;;;;;;19.75;11.48;;;8.80;96.90;;;;;;5114316;27;20035;-67
2022/03/12 08:30:40;;;;;;;21.73;12.25;;;9.00;96.80;;;;;;5112318;27;20050;-67
2022/03/12 08:33:06;;;;;;;21.42;11.77;;;9.00;97.20;;;;;;5115175;27;20035;-66
2022/03/12 08:35:31;;;;;;;22.00;11.63;;;9.10;97.20;;;;;;5131595;27;20039;-66
2022/03/12 08:37:57;;;;;;;19.10;11.43;;;9.20;96.60;;;;;;5114857;27;20541;-66
2022/03/12 08:40:25;;;;;;;19.48;10.93;;;9.30;96.20;;;;;;5113489;27;20137;-67
2022/03/12 08:42:52;;;;;;;19.50;11.88;;;9.40;96.90;;;;;;5132239;27;20035;-67
2022/03/12 08:45:18;;;;;;;25.08;12.63;;;9.50;97.30;;;;;;5113109;27;20043;-66
2022/03/12 08:47:44;;;;;;;19.95;11.90;;;9.60;97.90;;;;;;5113534;27;20120;-67
2022/03/12 08:50:10;;;;;;;22.20;12.07;;;9.60;97.90;;;;;;5114144;27;20066;-66
2022/03/12 08:52:36;;;;;;;22.25;11.88;;;9.70;97.90;;;;;;5115355;27;20495;-66
2022/03/12 08:55:03;;;;;;;20.45;11.88;;;9.90;98.30;;;;;;5112204;27;20042;-66
2022/03/12 08:57:29;;;;;;;20.35;11.27;;;10.00;98.90;;;;;;5112501;27;20144;-66
2022/03/12 08:59:55;;;;;;;17.45;11.00;;;10.10;99.90;;;;;;5131329;27;20038;-67
2022/03/12 09:02:23;;;;;;;20.30;11.50;;;10.20;99.90;;;;;;5113571;27;20039;-67
2022/03/12 09:04:50;;;;;;;20.48;11.02;;;10.30;99.90;;;;;;5114311;27;20035;-66
2022/03/12 09:07:15;;;;;;;19.60;11.50;;;10.50;99.90;;;;;;5114042;27;20077;-66
2022/03/12 09:09:41;;;;;;;18.45;11.25;;;10.60;99.90;;;;;;5122981;27;20074;-67
2022/03/12 09:12:08;;;;;;;17.20;11.00;;;10.70;99.90;;;;;;5133004;27;20531;-66
2022/03/12 09:14:36;;;;;;;17.40;10.85;;;10.80;99.90;;;;;;5132085;27;20031;-65
2022/03/12 09:17:03;;;;;;;17.67;10.27;;;10.90;99.90;;;;;;5112718;27;20079;-66
2022/03/12 09:19:29;;;;;;;18.85;10.77;;;11.00;99.90;;;;;;5109598;27;20173;-67
2022/03/12 09:21:56;;;;;;;18.13;11.10;;;11.10;99.90;;;;;;5112710;27;20125;-67
2022/03/12 09:24:22;;;;;;;18.27;11.00;;;11.20;99.90;;;;;;5112673;27;20114;-67
2022/03/12 09:26:48;;;;;;;16.38;10.50;;;11.30;99.90;;;;;;5112677;27;20507;-67
2022/03/12 09:29:13;;;;;;;15.43;10.45;;;11.30;99.90;;;;;;5112015;27;20035;-66
2022/03/12 09:31:39;;;;;;;14.75;9.00;;;11.40;99.90;;;;;;5132224;27;20035;-67
2022/03/12 09:34:06;;;;;;;16.23;10.30;;;11.50;99.90;;;;;;5109264;27;20035;-67
2022/03/12 09:36:32;;;;;;;16.85;9.90;;;11.50;99.90;;;;;;5109682;27;20634;-67
2022/03/12 09:38:57;;;;;;;18.85;10.57;;;11.60;99.90;;;;;;5112973;27;20061;-67
2022/03/12 09:41:23;;;;;;;19.52;10.52;;;11.60;99.90;;;;;;5112865;27;20039;-66
2022/03/12 09:43:51;;;;;;;17.77;9.82;;;11.70;99.90;;;;;;5112390;27;20100;-66
2022/03/12 09:46:17;;;;;;;17.48;10.10;;;11.70;99.90;;;;;;5111517;27;20027;-67
2022/03/12 09:48:43;;;;;;;19.08;10.10;;;11.70;99.90;;;;;;5129942;27;20035;-66
2022/03/12 09:51:09;;;;;;;17.27;10.02;;;11.70;99.90;;;;;;5104705;27;20047;-66
2022/03/12 09:53:34;;;;;;;14.55;9.73;;;11.80;99.90;;;;;;5103077;27;20410;-67
2022/03/12 09:56:00;;;;;;;15.05;9.77;;;11.80;99.90;;;;;;5113422;27;20039;-66
2022/03/12 09:58:26;;;;;;;16.77;10.40;;;11.80;99.90;;;;;;5113075;27;20054;-66
2022/03/12 10:00:51;;;;;;;15.45;9.80;;;11.90;99.90;;;;;;5110244;27;20039;-66
2022/03/12 10:03:17;;;;;;;14.80;9.93;;;12.00;99.90;;;;;;5113088;27;20098;-66
2022/03/12 10:05:42;;;;;;;13.98;8.98;;;12.00;99.90;;;;;;5131455;27;20033;-66
2022/03/12 10:08:08;;;;;;;15.77;9.32;;;12.00;99.90;;;;;;5110346;27;20159;-67
2022/03/12 10:10:34;;;;;;;14.82;9.02;;;12.10;99.90;;;;;;5112447;27;20389;-67
2022/03/12 10:13:00;;;;;;;14.52;8.82;;;12.20;99.90;;;;;;5131451;27;20632;-67
2022/03/12 10:15:25;;;;;;;14.02;8.85;;;12.30;99.90;;;;;;5111326;27;20192;-67
2022/03/12 10:17:51;;;;;;;12.52;8.30;;;12.30;99.90;;;;;;5109002;28;20047;-66
2022/03/12 10:20:17;;;;;;;13.07;8.10;;;12.30;99.90;;;;;;5111830;27;20039;-67
2022/03/12 10:22:45;;;;;;;12.25;8.05;;;12.40;99.90;;;;;;5112408;27;20039;-67
2022/03/12 10:25:12;;;;;;;15.48;8.98;;;12.40;99.90;;;;;;5112424;27;20076;-67
2022/03/12 10:27:39;;;;;;;13.25;8.40;;;12.40;99.90;;;;;;5110084;27;20069;-65
2022/03/12 10:30:06;;;;;;;14.95;9.23;;;12.50;99.90;;;;;;5110755;27;20043;-68
2022/03/12 10:32:38;;;;;;;13.77;9.05;;;12.60;99.90;;;;;;5110849;27;20126;-66
2022/03/12 10:35:05;;;;;;;14.45;8.55;;;12.70;99.90;;;;;;5112524;27;20039;-67
2022/03/12 10:37:32;;;;;;;11.88;8.75;;;12.70;99.90;;;;;;5112340;27;20035;-67
2022/03/12 10:40:24;;;;;;;15.13;9.45;;;12.90;99.90;;;;;;5110207;27;20435;-67
2022/03/12 10:43:01;;;;;;;13.75;9.05;;;13.00;99.90;;;;;;5126008;27;20042;-66
2022/03/12 10:45:28;;;;;;;14.82;9.32;;;13.10;99.90;;;;;;5108209;27;20039;-66
2022/03/12 10:47:56;;;;;;;14.57;8.90;;;13.20;99.90;;;;;;5110905;27;20397;-68
2022/03/12 10:50:29;;;;;;;14.00;8.43;;;13.30;99.90;;;;;;5107717;27;20664;-67
2022/03/12 10:52:59;;;;;;;14.93;9.00;;;13.40;99.90;;;;;;5106842;27;20122;-67
2022/03/12 10:55:33;;;;;;;14.68;9.07;;;13.40;99.90;;;;;;5112316;27;20130;-67
2022/03/12 10:58:04;;;;;;;14.18;8.90;;;13.40;99.90;;;;;;5109905;27;20047;-67
2022/03/12 11:00:33;;;;;;;15.40;9.48;;;13.40;99.90;;;;;;5094488;27;20398;-66
2022/03/12 11:03:01;;;;;;;16.67;9.50;;;13.50;99.90;;;;;;5128219;27;20088;-66
2022/03/12 11:05:35;;;;;;;17.75;10.38;;;13.70;99.90;;;;;;5110340;27;20521;-67
2022/03/12 11:08:15;;;;;;;20.88;10.05;;;13.80;99.90;;;;;;5112021;27;20031;-67
2022/03/12 11:10:48;;;;;;;17.77;9.88;;;13.90;99.90;;;;;;5108911;27;20063;-66
2022/03/12 11:13:40;;;;;;;16.45;9.88;;;14.00;99.90;;;;;;5129946;27;20043;-67
2022/03/12 11:16:10;;;;;;;22.55;10.40;;;14.10;99.90;;;;;;5109254;27;20034;-67
2022/03/12 11:18:36;;;;;;;18.40;11.10;;;14.10;99.90;;;;;;5111579;27;20047;-67
2022/03/12 11:21:02;;;;;;;17.80;10.23;;;14.20;99.90;;;;;;5111354;27;20134;-67
2022/03/12 11:23:31;;;;;;;19.10;10.15;;;14.30;99.90;;;;;;5130230;27;20031;-67
2022/03/12 11:26:05;;;;;;;19.75;10.27;;;14.40;99.90;;;;;;5128990;27;21140;-67
2022/03/12 11:28:35;;;;;;;17.77;9.38;;;14.50;99.90;;;;;;5109557;27;20576;-67
2022/03/12 11:31:01;;;;;;;16.13;9.38;;;14.50;99.90;;;;;;5129999;27;20530;-66
2022/03/12 11:33:27;;;;;;;23.10;11.40;;;14.50;99.90;;;;;;5094841;28;20051;-68
2022/03/12 11:36:09;;;;;;;19.40;10.45;;;14.60;99.90;;;;;;5128902;28;20038;-66
2022/03/12 11:38:35;;;;;;;22.30;11.05;;;14.70;99.90;;;;;;5111061;28;20027;-67
2022/03/12 11:41:20;;;;;;;21.95;11.40;;;14.70;99.90;;;;;;5108380;28;20108;-65
2022/03/12 11:43:47;;;;;;;20.90;10.45;;;14.60;99.90;;;;;;5128338;28;20035;-67
2022/03/12 11:46:14;;;;;;;24.25;11.52;;;14.70;99.90;;;;;;5130133;28;20039;-67
2022/03/12 11:48:41;;;;;;;21.17;11.82;;;14.60;99.90;;;;;;5094085;28;20031;-67
2022/03/12 11:51:22;;;;;;;20.92;12.07;;;14.60;99.90;;;;;;5115837;28;20043;-67
2022/03/12 11:53:48;;;;;;;22.63;12.07;;;14.50;99.90;;;;;;5099034;27;20459;-67
2022/03/12 11:56:15;;;;;;;20.67;11.48;;;14.50;99.90;;;;;;5104957;28;20131;-67
2022/03/12 11:58:40;;;;;;;20.67;10.02;;;14.60;99.90;;;;;;5112283;28;20123;-67
2022/03/12 12:01:06;;;;;;;19.10;11.07;;;14.60;99.90;;;;;;5093779;28;20068;-67
2022/03/12 12:03:32;;;;;;;19.98;11.48;;;14.60;99.90;;;;;;5107333;28;20605;-67
2022/03/12 12:05:57;;;;;;;21.73;12.55;;;14.60;99.90;;;;;;5128311;28;20402;-67
2022/03/12 12:08:24;;;;;;;20.45;11.35;;;14.60;99.90;;;;;;5109067;28;20034;-67
2022/03/12 12:10:54;;;;;;;24.50;11.38;;;14.60;99.90;;;;;;5097652;27;20051;-67
2022/03/12 12:13:21;;;;;;;21.70;11.60;;;14.70;99.90;;;;;;5123842;27;20043;-67
2022/03/12 12:15:47;;;;;;;24.52;12.52;;;14.70;99.90;;;;;;5107706;28;20180;-68
2022/03/12 12:18:13;;;;;;;19.48;11.38;;;14.80;99.90;;;;;;5126731;28;20048;-67
2022/03/12 12:20:43;;;;;;;26.83;12.15;;;14.80;99.90;;;;;;5120617;27;20039;-68
2022/03/12 12:23:18;;;;;;;24.73;12.32;;;14.80;99.90;;;;;;5106029;28;20116;-67
2022/03/12 12:25:43;;;;;;;21.67;11.18;;;14.90;99.90;;;;;;5109290;28;20155;-67
2022/03/12 12:28:20;;;;;;;20.42;11.15;;;14.90;99.90;;;;;;5105663;28;20125;-67
2022/03/12 12:30:49;;;;;;;25.80;11.82;;;15.00;99.90;;;;;;5105302;28;20046;-67
2022/03/12 12:33:25;;;;;;;20.10;10.68;;;14.90;99.90;;;;;;5101327;28;20043;-67
2022/03/12 12:36:12;;;;;;;22.75;11.63;;;15.00;99.90;;;;;;5108375;28;20050;-67
2022/03/12 12:38:40;;;;;;;19.88;10.63;;;15.00;97.70;;;;;;5109090;28;20039;-67
2022/03/12 12:41:06;;;;;;;20.38;10.50;;;15.10;97.20;;;;;;5108155;27;20051;-67